Time;durP1;ratioP1;P1;durP2;ratioP2;P2;SDS_P1;SDS_P2;PMS_P1;PMS_P2;Temp;Humidity;BMP_temperature;BMP_pressure;BME280_temperature;BME280_humidity;BME280_pressure;Samples;Min_cycle;Max_cycle;Signal;HPM_P1;HPM_P2
2023/06/29 00:00:23;;;;;;;25.40;15.17;;;22.80;99.90;;;;;;7287988;19;20181;-81
2023/06/29 00:02:49;;;;;;;27.27;15.83;;;22.80;99.90;;;;;;7284456;19;20185;-81
2023/06/29 00:05:16;;;;;;;25.63;15.17;;;22.80;99.90;;;;;;7285746;19;20641;-80
2023/06/29 00:07:41;;;;;;;25.38;15.48;;;22.80;99.90;;;;;;7285805;19;20523;-80
2023/06/29 00:10:09;;;;;;;26.23;15.40;;;22.80;99.90;;;;;;7285629;19;20193;-81
2023/06/29 00:12:36;;;;;;;28.67;16.43;;;22.80;99.90;;;;;;7286278;19;20185;-80
2023/06/29 00:15:02;;;;;;;27.90;15.77;;;22.80;99.90;;;;;;7285959;19;20189;-80
2023/06/29 00:17:28;;;;;;;27.30;15.68;;;22.80;99.90;;;;;;7307080;19;20572;-79
2023/06/29 00:19:53;;;;;;;25.42;15.27;;;22.80;99.90;;;;;;7295523;19;20188;-81
2023/06/29 00:22:19;;;;;;;26.07;15.63;;;22.80;99.90;;;;;;7286034;19;20210;-81
2023/06/29 00:24:54;;;;;;;25.40;14.70;;;22.80;99.90;;;;;;7285707;19;20666;-81
2023/06/29 00:27:21;;;;;;;26.23;15.10;;;22.80;99.90;;;;;;7285274;19;20293;-81
2023/06/29 00:29:46;;;;;;;28.47;15.67;;;22.80;99.90;;;;;;7284863;19;20196;-80
2023/06/29 00:32:13;;;;;;;29.53;16.60;;;22.80;99.90;;;;;;7286417;19;20185;-81
2023/06/29 00:34:39;;;;;;;27.77;16.70;;;22.80;99.90;;;;;;7286324;19;20667;-80
2023/06/29 00:37:05;;;;;;;26.77;15.53;;;22.90;99.90;;;;;;7286618;19;20289;-80
2023/06/29 00:39:31;;;;;;;25.17;15.20;;;22.90;99.90;;;;;;7285902;19;20196;-80
2023/06/29 00:41:58;;;;;;;30.03;17.00;;;22.90;99.90;;;;;;7305117;19;20543;-78
2023/06/29 00:44:24;;;;;;;27.07;16.33;;;22.90;99.90;;;;;;7295034;19;20284;-80
2023/06/29 00:46:52;;;;;;;27.75;16.17;;;23.00;99.90;;;;;;7285943;19;20196;-81
2023/06/29 00:49:21;;;;;;;30.17;16.17;;;23.00;99.90;;;;;;7284327;19;20233;-81
2023/06/29 00:51:50;;;;;;;29.20;16.85;;;22.90;99.90;;;;;;7284139;19;20188;-80
2023/06/29 00:54:20;;;;;;;28.60;16.73;;;22.90;99.90;;;;;;7282406;19;20577;-80
2023/06/29 00:56:48;;;;;;;27.08;16.85;;;22.90;99.90;;;;;;7285495;19;20189;-80
2023/06/29 00:59:14;;;;;;;26.93;16.73;;;22.90;99.90;;;;;;7284525;19;20212;-80
2023/06/29 01:01:41;;;;;;;31.57;16.87;;;22.90;99.90;;;;;;7283475;19;20193;-80
2023/06/29 01:04:07;;;;;;;29.33;16.77;;;22.90;99.90;;;;;;7284162;19;20285;-81
2023/06/29 01:07:02;;;;;;;29.83;16.93;;;22.90;99.90;;;;;;7284023;19;20203;-80
2023/06/29 01:09:32;;;;;;;27.87;17.30;;;22.90;99.90;;;;;;7261910;19;20185;-80
2023/06/29 01:11:59;;;;;;;27.63;16.73;;;22.90;99.90;;;;;;7302060;19;20199;-80
2023/06/29 01:14:26;;;;;;;29.40;16.23;;;22.80;99.90;;;;;;7307104;19;20180;-80
2023/06/29 01:16:55;;;;;;;30.57;16.97;;;22.80;99.90;;;;;;7284200;19;20506;-81
2023/06/29 01:19:31;;;;;;;29.20;17.27;;;22.80;99.90;;;;;;7284024;19;20344;-81
2023/06/29 01:22:14;;;;;;;25.60;16.58;;;22.60;99.90;;;;;;7283464;19;20256;-81
2023/06/29 01:24:40;;;;;;;29.10;16.83;;;22.60;99.90;;;;;;7180885;19;2006505;-81
2023/06/29 01:27:12;;;;;;;30.93;17.13;;;22.60;99.90;;;;;;7283883;19;20282;-81
2023/06/29 01:29:39;;;;;;;31.00;16.93;;;22.50;99.90;;;;;;7283320;19;20201;-81
2023/06/29 01:32:07;;;;;;;25.50;16.03;;;22.50;99.90;;;;;;7282840;19;20535;-80
2023/06/29 01:34:37;;;;;;;30.27;16.80;;;22.40;99.90;;;;;;7284411;19;20698;-80
2023/06/29 01:37:13;;;;;;;26.60;15.45;;;22.30;99.90;;;;;;7283611;19;20189;-80
2023/06/29 01:39:53;;;;;;;29.17;16.53;;;22.30;99.90;;;;;;7283851;19;20225;-81
2023/06/29 01:42:20;;;;;;;28.23;16.70;;;22.30;99.90;;;;;;7283782;19;20347;-81
2023/06/29 01:44:47;;;;;;;30.53;16.90;;;22.30;99.90;;;;;;7282044;19;20224;-81
2023/06/29 01:47:15;;;;;;;29.83;17.53;;;22.20;99.90;;;;;;7283148;19;20189;-80
2023/06/29 01:49:42;;;;;;;28.80;16.57;;;22.20;99.90;;;;;;7282342;19;20257;-81
2023/06/29 01:52:08;;;;;;;30.90;17.77;;;22.10;99.90;;;;;;7283467;19;20197;-81
2023/06/29 01:54:34;;;;;;;32.97;18.93;;;22.10;99.90;;;;;;7283038;19;20232;-81
2023/06/29 01:57:03;;;;;;;33.87;18.90;;;22.10;99.90;;;;;;7282038;19;20223;-81
2023/06/29 01:59:29;;;;;;;31.90;19.23;;;22.00;99.90;;;;;;7289546;19;20260;-80
2023/06/29 02:01:55;;;;;;;31.30;18.80;;;21.90;99.90;;;;;;7302709;19;20620;-81
2023/06/29 02:04:21;;;;;;;31.37;19.63;;;21.90;99.90;;;;;;7280128;19;20205;-80
2023/06/29 02:06:46;;;;;;;34.57;19.87;;;21.90;99.90;;;;;;7280605;19;20196;-81
2023/06/29 02:09:12;;;;;;;34.53;20.40;;;21.80;99.90;;;;;;7280519;19;20193;-80
2023/06/29 02:11:38;;;;;;;39.00;20.57;;;21.80;99.90;;;;;;7279385;19;20256;-80
2023/06/29 02:14:03;;;;;;;33.73;20.00;;;21.80;99.90;;;;;;7283048;19;20585;-80
2023/06/29 02:16:29;;;;;;;37.80;20.77;;;21.70;99.90;;;;;;7292080;19;20189;-80
2023/06/29 02:18:55;;;;;;;34.67;18.97;;;21.70;99.90;;;;;;7301784;19;20197;-80
2023/06/29 02:21:21;;;;;;;37.77;20.03;;;21.70;99.90;;;;;;7281824;19;20200;-80
2023/06/29 02:23:46;;;;;;;35.00;20.40;;;21.70;99.90;;;;;;7282240;19;20199;-81
2023/06/29 02:26:12;;;;;;;34.20;19.90;;;21.60;99.90;;;;;;7281881;19;20542;-80
2023/06/29 02:28:38;;;;;;;45.17;21.27;;;21.60;99.90;;;;;;7281877;19;20253;-80
2023/06/29 02:31:03;;;;;;;34.67;20.07;;;21.50;99.90;;;;;;7281443;19;20743;-80
2023/06/29 02:33:30;;;;;;;40.87;21.80;;;21.60;99.90;;;;;;7285167;19;20577;-80
2023/06/29 02:35:56;;;;;;;39.40;22.30;;;21.50;99.90;;;;;;7303308;19;20200;-80
2023/06/29 02:38:22;;;;;;;37.97;21.80;;;21.60;99.90;;;;;;7282420;19;20649;-80
2023/06/29 02:40:48;;;;;;;35.80;21.30;;;21.50;99.90;;;;;;7280771;19;20191;-80
2023/06/29 02:43:15;;;;;;;41.77;23.50;;;21.40;99.90;;;;;;7281693;19;20193;-80
2023/06/29 02:45:41;;;;;;;38.70;22.60;;;21.40;99.90;;;;;;7279969;19;20204;-80
2023/06/29 02:48:07;;;;;;;40.70;22.10;;;21.40;99.90;;;;;;7279908;19;20532;-80
2023/06/29 02:50:33;;;;;;;38.30;22.27;;;21.30;99.90;;;;;;7286807;19;20217;-80
2023/06/29 02:52:59;;;;;;;36.03;21.27;;;21.40;99.90;;;;;;7299330;19;20195;-80
2023/06/29 02:55:26;;;;;;;36.57;21.17;;;21.40;99.90;;;;;;7309976;19;20188;-80
2023/06/29 02:57:52;;;;;;;37.83;21.13;;;21.30;99.90;;;;;;7288049;19;20279;-80
2023/06/29 03:00:18;;;;;;;37.17;21.10;;;21.40;99.90;;;;;;7288119;19;20196;-80
2023/06/29 03:02:43;;;;;;;34.93;21.00;;;21.30;99.90;;;;;;7287474;19;20597;-80
2023/06/29 03:05:09;;;;;;;39.53;22.23;;;21.40;99.90;;;;;;7287647;19;20211;-80
2023/06/29 03:07:38;;;;;;;35.97;22.30;;;21.40;99.90;;;;;;7287688;19;20192;-80
2023/06/29 03:10:04;;;;;;;37.87;21.20;;;21.40;99.90;;;;;;7287979;19;20188;-80
2023/06/29 03:12:30;;;;;;;37.77;21.40;;;21.40;99.90;;;;;;7289033;19;20531;-80
2023/06/29 03:14:56;;;;;;;37.80;21.83;;;21.40;99.90;;;;;;7310801;19;20208;-81
2023/06/29 03:17:24;;;;;;;36.73;21.70;;;21.40;99.90;;;;;;7287060;19;20576;-81
2023/06/29 03:19:50;;;;;;;35.70;20.63;;;21.50;99.90;;;;;;7288077;19;20194;-80
2023/06/29 03:22:15;;;;;;;38.13;21.80;;;21.40;99.90;;;;;;7288648;19;20209;-80
2023/06/29 03:24:41;;;;;;;33.30;20.27;;;21.40;99.90;;;;;;7288142;19;20224;-80
2023/06/29 03:27:07;;;;;;;36.27;20.57;;;21.40;99.90;;;;;;7286858;19;20180;-80
2023/06/29 03:29:32;;;;;;;36.37;21.10;;;21.30;99.90;;;;;;7287617;19;20672;-80
2023/06/29 03:31:59;;;;;;;37.60;21.73;;;21.30;99.90;;;;;;7309166;19;20177;-78
2023/06/29 03:34:26;;;;;;;34.97;20.83;;;21.20;99.90;;;;;;7309048;19;20192;-81
2023/06/29 03:36:52;;;;;;;36.77;20.57;;;21.20;99.90;;;;;;7287609;19;20764;-80
2023/06/29 03:39:18;;;;;;;41.50;21.70;;;21.30;99.90;;;;;;7287596;19;20256;-80
2023/06/29 03:41:43;;;;;;;37.47;20.90;;;21.30;99.90;;;;;;7287685;19;20193;-80
2023/06/29 03:44:09;;;;;;;36.43;19.90;;;21.30;99.90;;;;;;7288238;19;20203;-80
2023/06/29 03:46:35;;;;;;;34.73;20.57;;;21.30;99.90;;;;;;7286408;19;20204;-81
2023/06/29 03:49:01;;;;;;;34.63;20.93;;;21.30;99.90;;;;;;7288802;19;20244;-81
2023/06/29 03:51:27;;;;;;;34.87;21.03;;;21.40;99.90;;;;;;7309689;19;20219;-80
2023/06/29 03:53:52;;;;;;;39.23;21.10;;;21.40;99.90;;;;;;7288286;19;20199;-80
2023/06/29 03:56:18;;;;;;;39.53;21.40;;;21.40;99.90;;;;;;7286942;19;20649;-80
2023/06/29 03:58:44;;;;;;;36.00;21.33;;;21.20;99.90;;;;;;7287256;19;20185;-81
2023/06/29 04:01:09;;;;;;;36.13;20.87;;;21.20;99.90;;;;;;7282240;19;20209;-80
2023/06/29 04:03:35;;;;;;;38.53;21.27;;;21.30;99.90;;;;;;7284981;19;20216;-80
2023/06/29 04:06:01;;;;;;;40.07;22.73;;;21.30;99.90;;;;;;7285138;19;20196;-80
2023/06/29 04:08:27;;;;;;;36.13;21.17;;;21.30;99.90;;;;;;7307492;19;20184;-80
2023/06/29 04:10:53;;;;;;;34.20;20.63;;;21.20;99.90;;;;;;7284752;19;20201;-80
2023/06/29 04:13:19;;;;;;;38.40;22.20;;;21.10;99.90;;;;;;7286068;19;20186;-80
2023/06/29 04:15:45;;;;;;;37.93;21.97;;;21.10;99.90;;;;;;7286144;19;20620;-80
2023/06/29 04:18:11;;;;;;;36.77;22.07;;;21.10;99.90;;;;;;7284924;19;20643;-80
2023/06/29 04:20:37;;;;;;;37.17;21.30;;;21.20;99.90;;;;;;7285036;19;20688;-81
2023/06/29 04:23:03;;;;;;;35.93;20.93;;;21.20;99.90;;;;;;7285914;19;20189;-80
2023/06/29 04:25:28;;;;;;;33.53;18.90;;;21.30;99.90;;;;;;7304181;19;20236;-80
2023/06/29 04:27:54;;;;;;;34.60;20.07;;;21.20;99.90;;;;;;7297782;19;20648;-81
2023/06/29 04:30:20;;;;;;;34.27;20.67;;;21.10;99.90;;;;;;7284155;19;20965;-81
2023/06/29 04:32:46;;;;;;;36.97;20.83;;;21.00;99.90;;;;;;7286349;19;20197;-81
2023/06/29 04:35:12;;;;;;;36.20;20.37;;;21.10;99.90;;;;;;7285481;19;20556;-81
2023/06/29 04:37:41;;;;;;;35.27;21.00;;;21.20;99.90;;;;;;7285626;19;20249;-81
2023/06/29 04:40:12;;;;;;;38.43;22.10;;;21.20;99.90;;;;;;7285210;19;20185;-80
2023/06/29 04:42:43;;;;;;;42.30;21.50;;;21.30;99.90;;;;;;7285362;19;20199;-81
2023/06/29 04:45:12;;;;;;;38.50;21.67;;;21.40;99.90;;;;;;7284943;19;20240;-81
2023/06/29 04:47:40;;;;;;;35.70;21.37;;;21.50;99.90;;;;;;7286218;19;20283;-81
2023/06/29 04:50:07;;;;;;;37.33;21.63;;;21.50;99.90;;;;;;7283320;19;20826;-79
2023/06/29 04:52:36;;;;;;;38.07;22.03;;;21.50;99.90;;;;;;7284845;19;20199;-80
2023/06/29 04:55:06;;;;;;;34.73;20.03;;;21.40;99.90;;;;;;7283495;19;20660;-78
2023/06/29 04:57:32;;;;;;;32.73;20.23;;;21.40;99.90;;;;;;7285181;19;20189;-79
2023/06/29 04:59:58;;;;;;;37.03;20.47;;;21.40;99.90;;;;;;7305484;19;20573;-78
2023/06/29 05:02:24;;;;;;;36.40;20.57;;;21.50;99.90;;;;;;7283176;19;20215;-78
2023/06/29 05:04:50;;;;;;;36.57;21.43;;;21.70;99.90;;;;;;7284116;19;20178;-79
2023/06/29 05:07:16;;;;;;;33.07;20.27;;;21.80;99.90;;;;;;7284710;19;20289;-79
2023/06/29 05:09:42;;;;;;;34.80;20.63;;;22.00;99.90;;;;;;7285096;19;20200;-79
2023/06/29 05:12:09;;;;;;;35.50;20.80;;;22.00;99.90;;;;;;7283355;19;20278;-77
2023/06/29 05:14:34;;;;;;;38.57;21.73;;;22.10;99.90;;;;;;7284204;19;20196;-79
2023/06/29 05:17:00;;;;;;;40.13;22.13;;;22.40;99.90;;;;;;7288483;19;20267;-78
2023/06/29 05:19:26;;;;;;;42.63;22.80;;;22.50;99.90;;;;;;7306723;19;20248;-84
2023/06/29 05:21:52;;;;;;;36.63;22.03;;;22.60;99.90;;;;;;7283507;19;20196;-81
2023/06/29 05:24:17;;;;;;;36.27;22.07;;;22.50;99.90;;;;;;7282999;19;20192;-81
2023/06/29 05:26:43;;;;;;;38.73;23.07;;;22.50;99.90;;;;;;7284231;19;20208;-81
2023/06/29 05:29:09;;;;;;;37.17;21.30;;;22.60;99.90;;;;;;7284261;19;20192;-81
2023/06/29 05:31:34;;;;;;;39.20;21.87;;;22.50;99.90;;;;;;7282926;19;20599;-80
2023/06/29 05:34:00;;;;;;;38.23;22.20;;;22.50;99.90;;;;;;7288717;19;20185;-80
2023/06/29 05:36:26;;;;;;;39.97;23.17;;;22.50;99.90;;;;;;7305860;19;20265;-80
2023/06/29 05:38:52;;;;;;;37.53;22.73;;;22.50;99.90;;;;;;7284232;19;20192;-80
2023/06/29 05:41:18;;;;;;;39.00;23.27;;;22.60;99.90;;;;;;7283982;19;20212;-81
2023/06/29 05:43:43;;;;;;;38.77;22.60;;;22.70;99.90;;;;;;7282729;19;20203;-81
2023/06/29 05:46:10;;;;;;;39.60;22.50;;;22.80;99.90;;;;;;7283078;19;20570;-81
2023/06/29 05:48:35;;;;;;;40.10;22.83;;;22.70;99.90;;;;;;7282489;19;20201;-82
2023/06/29 05:51:01;;;;;;;39.07;22.80;;;22.80;99.90;;;;;;7282895;19;20188;-80
2023/06/29 05:53:27;;;;;;;38.57;22.80;;;22.90;99.90;;;;;;7304036;19;20191;-84
2023/06/29 05:55:52;;;;;;;38.47;22.47;;;23.00;99.90;;;;;;7283433;19;20193;-81
2023/06/29 05:58:18;;;;;;;36.33;21.63;;;22.90;99.90;;;;;;7282873;19;21620;-80
2023/06/29 06:00:44;;;;;;;40.47;23.53;;;22.90;99.90;;;;;;7283179;19;20189;-82
2023/06/29 06:03:11;;;;;;;39.60;22.43;;;22.80;99.90;;;;;;7281787;19;20217;-82
2023/06/29 06:05:36;;;;;;;40.37;22.70;;;22.80;99.90;;;;;;7281714;19;20192;-81
2023/06/29 06:08:02;;;;;;;46.17;22.50;;;22.80;99.90;;;;;;7282978;19;20224;-81
2023/06/29 06:10:28;;;;;;;39.93;22.70;;;22.60;99.90;;;;;;7304013;19;20272;-82
2023/06/29 06:12:54;;;;;;;38.23;22.30;;;22.70;99.90;;;;;;7282971;19;20185;-82
2023/06/29 06:15:20;;;;;;;42.60;22.23;;;22.70;99.90;;;;;;7283330;19;20198;-82
2023/06/29 06:17:45;;;;;;;37.50;22.03;;;22.70;99.90;;;;;;7281662;19;20204;-82
2023/06/29 06:20:11;;;;;;;42.20;23.33;;;22.70;99.90;;;;;;7282453;19;20216;-82
2023/06/29 06:22:37;;;;;;;40.87;22.60;;;22.80;99.90;;;;;;7281803;19;20185;-82
2023/06/29 06:25:03;;;;;;;40.00;22.60;;;22.80;99.90;;;;;;7286368;19;20204;-82
2023/06/29 06:27:29;;;;;;;40.07;22.03;;;22.80;99.90;;;;;;7311733;19;20233;-81
2023/06/29 06:29:55;;;;;;;36.73;22.10;;;22.90;99.90;;;;;;7303795;19;20629;-81
2023/06/29 06:32:24;;;;;;;40.38;22.92;;;22.90;99.90;;;;;;7288810;19;20203;-82
2023/06/29 06:34:53;;;;;;;39.60;22.27;;;23.00;99.90;;;;;;7289386;19;20334;-82
2023/06/29 06:37:19;;;;;;;41.70;22.30;;;23.00;99.90;;;;;;7289624;19;20243;-82
2023/06/29 06:39:45;;;;;;;39.10;22.73;;;23.00;99.90;;;;;;7288069;19;20252;-82
2023/06/29 06:42:11;;;;;;;38.23;22.23;;;23.10;99.90;;;;;;7289319;19;20201;-82
2023/06/29 06:44:51;;;;;;;38.67;22.50;;;23.20;99.90;;;;;;7288615;19;20248;-82
2023/06/29 06:47:17;;;;;;;42.07;23.10;;;23.20;99.90;;;;;;7289093;19;20864;-80
2023/06/29 06:49:43;;;;;;;39.45;22.90;;;23.20;99.90;;;;;;7288054;19;20188;-81
2023/06/29 06:52:08;;;;;;;38.63;23.30;;;23.10;99.90;;;;;;7287911;19;20218;-81
2023/06/29 06:54:34;;;;;;;39.95;23.52;;;23.20;99.90;;;;;;7287493;19;20177;-81
2023/06/29 06:57:00;;;;;;;39.40;22.35;;;23.30;99.90;;;;;;7299339;19;20192;-80
2023/06/29 06:59:25;;;;;;;38.90;22.40;;;23.50;99.90;;;;;;7306278;19;20184;-81
2023/06/29 07:01:51;;;;;;;37.10;22.27;;;23.50;99.90;;;;;;7286780;19;20196;-80
2023/06/29 07:04:17;;;;;;;40.70;22.60;;;23.70;99.90;;;;;;7289161;19;20201;-81
2023/06/29 07:06:43;;;;;;;39.63;23.23;;;23.60;99.90;;;;;;7299246;19;20539;-81
2023/06/29 07:09:09;;;;;;;40.27;21.90;;;23.60;99.90;;;;;;7296126;19;20196;-81
2023/06/29 07:11:37;;;;;;;38.50;23.57;;;23.70;99.90;;;;;;7300163;19;20196;-81
2023/06/29 07:14:02;;;;;;;42.03;23.20;;;23.80;99.90;;;;;;7299538;19;20220;-80
2023/06/29 07:16:28;;;;;;;38.25;22.90;;;24.00;99.90;;;;;;7312833;19;20209;-82
2023/06/29 07:19:03;;;;;;;40.65;23.45;;;24.10;99.90;;;;;;7286264;19;20189;-81
2023/06/29 07:21:28;;;;;;;43.75;24.80;;;24.20;99.90;;;;;;7285993;19;20659;-82
2023/06/29 07:23:54;;;;;;;41.10;23.30;;;24.30;99.90;;;;;;7287370;19;20189;-81
2023/06/29 07:26:22;;;;;;;42.60;22.77;;;24.30;99.90;;;;;;7286360;19;20186;-82
2023/06/29 07:28:49;;;;;;;39.78;24.13;;;24.40;99.90;;;;;;7286675;19;20668;-83
2023/06/29 07:31:15;;;;;;;43.25;23.75;;;24.30;99.90;;;;;;7286682;19;20256;-82
2023/06/29 07:33:41;;;;;;;40.67;23.95;;;24.30;99.90;;;;;;7286335;19;20197;-80
2023/06/29 07:36:07;;;;;;;44.42;23.95;;;24.10;99.90;;;;;;7284593;19;20215;-82
2023/06/29 07:38:33;;;;;;;39.78;23.17;;;24.00;99.90;;;;;;7285987;19;20192;-81
2023/06/29 07:40:59;;;;;;;44.60;25.23;;;24.00;99.90;;;;;;7307002;19;20187;-80
2023/06/29 07:43:24;;;;;;;42.13;24.92;;;24.00;99.90;;;;;;7292860;19;20206;-82
2023/06/29 07:45:50;;;;;;;40.55;24.17;;;24.10;99.90;;;;;;7285095;19;20192;-82
2023/06/29 07:48:17;;;;;;;42.33;24.20;;;24.20;99.90;;;;;;7283666;19;20189;-82
2023/06/29 07:50:42;;;;;;;45.78;25.35;;;24.10;99.90;;;;;;7282659;19;20189;-81
2023/06/29 07:53:08;;;;;;;41.85;25.15;;;24.10;99.90;;;;;;7283303;19;20188;-82
2023/06/29 07:55:34;;;;;;;43.22;25.63;;;24.30;99.90;;;;;;7287100;19;20193;-81
2023/06/29 07:58:00;;;;;;;45.10;25.55;;;24.30;99.90;;;;;;7297939;19;20256;-80
2023/06/29 08:00:26;;;;;;;45.75;25.65;;;24.30;99.90;;;;;;7306120;19;21625;-81
2023/06/29 08:02:53;;;;;;;47.20;25.92;;;24.40;99.90;;;;;;7283808;19;20197;-81
2023/06/29 08:05:19;;;;;;;43.85;25.35;;;24.50;99.90;;;;;;7286526;19;20658;-82
2023/06/29 08:07:45;;;;;;;42.15;26.25;;;24.60;99.90;;;;;;7286942;19;20185;-81
2023/06/29 08:10:11;;;;;;;46.00;25.98;;;24.70;99.90;;;;;;7286703;19;21776;-82
2023/06/29 08:12:37;;;;;;;45.30;26.45;;;24.60;99.90;;;;;;7285800;19;20253;-81
2023/06/29 08:15:03;;;;;;;43.05;25.25;;;24.70;99.90;;;;;;7286987;19;20189;-81
2023/06/29 08:17:30;;;;;;;43.58;26.90;;;24.60;99.90;;;;;;7307914;19;20724;-81
2023/06/29 08:19:55;;;;;;;41.10;25.75;;;24.80;99.90;;;;;;7286176;19;20269;-82
2023/06/29 08:22:21;;;;;;;43.50;25.70;;;24.90;99.90;;;;;;7285443;19;20201;-81
2023/06/29 08:24:46;;;;;;;41.55;26.02;;;24.80;99.90;;;;;;7284876;19;20193;-81
2023/06/29 08:27:12;;;;;;;41.92;26.08;;;24.90;99.90;;;;;;7286961;19;20193;-82
2023/06/29 08:29:41;;;;;;;38.80;25.50;;;25.10;99.90;;;;;;7284402;19;20197;-81
2023/06/29 08:32:08;;;;;;;42.25;26.52;;;25.40;99.90;;;;;;7285679;19;20188;-82
2023/06/29 08:34:34;;;;;;;44.08;27.70;;;25.50;99.90;;;;;;7287187;19;20287;-81
2023/06/29 08:37:00;;;;;;;43.88;27.25;;;25.70;99.90;;;;;;7298249;19;20680;-81
2023/06/29 08:39:26;;;;;;;44.25;27.13;;;25.70;99.90;;;;;;7305831;19;20237;-81
2023/06/29 08:41:51;;;;;;;42.33;26.50;;;25.80;99.90;;;;;;7283311;19;20257;-80
2023/06/29 08:44:18;;;;;;;46.00;27.50;;;25.70;99.90;;;;;;7286230;19;20607;-81
2023/06/29 08:46:46;;;;;;;47.97;28.33;;;25.50;99.90;;;;;;7284330;19;20192;-80
2023/06/29 08:49:14;;;;;;;45.95;27.73;;;25.50;99.90;;;;;;7285285;19;20597;-82
2023/06/29 08:51:43;;;;;;;44.95;27.30;;;25.40;99.90;;;;;;7285434;19;20543;-80
2023/06/29 08:54:12;;;;;;;47.05;28.30;;;25.50;99.90;;;;;;7285219;19;20722;-81
2023/06/29 08:56:38;;;;;;;48.13;27.83;;;25.30;99.90;;;;;;7283014;19;20639;-81
2023/06/29 08:59:04;;;;;;;45.15;27.95;;;25.20;99.90;;;;;;7284384;19;20192;-81
2023/06/29 09:01:31;;;;;;;48.30;28.85;;;25.00;99.90;;;;;;7293186;19;20632;-80
2023/06/29 09:03:57;;;;;;;47.63;28.83;;;25.00;99.90;;;;;;7306647;19;20297;-81
2023/06/29 09:06:23;;;;;;;48.15;28.55;;;25.10;99.90;;;;;;7283842;19;20260;-81
2023/06/29 09:08:49;;;;;;;47.72;29.08;;;25.10;99.90;;;;;;7285786;19;20198;-81
2023/06/29 09:11:15;;;;;;;46.42;28.25;;;25.10;99.90;;;;;;7283024;19;20293;-82
2023/06/29 09:13:41;;;;;;;50.72;28.42;;;25.10;99.90;;;;;;7286155;19;20520;-81
2023/06/29 09:16:07;;;;;;;46.53;27.83;;;25.00;99.90;;;;;;7284321;19;20176;-80
2023/06/29 09:18:34;;;;;;;50.00;28.60;;;25.20;99.90;;;;;;7284737;19;20188;-81
2023/06/29 09:20:59;;;;;;;46.28;28.67;;;25.20;99.90;;;;;;7300216;19;20181;-80
2023/06/29 09:23:26;;;;;;;50.20;29.48;;;25.30;99.90;;;;;;7299526;19;20185;-81
2023/06/29 09:25:54;;;;;;;49.10;28.45;;;25.40;99.90;;;;;;7282810;19;20192;-82
2023/06/29 09:28:20;;;;;;;48.92;29.38;;;25.60;99.90;;;;;;7285026;19;20178;-82
2023/06/29 09:30:46;;;;;;;45.30;27.95;;;25.60;99.90;;;;;;7283758;19;20188;-81
2023/06/29 09:33:14;;;;;;;47.13;28.30;;;25.60;99.90;;;;;;7283907;19;20862;-81
2023/06/29 09:35:48;;;;;;;48.42;27.48;;;25.70;99.90;;;;;;7283646;19;20815;-82
2023/06/29 09:38:18;;;;;;;46.33;28.52;;;25.80;99.90;;;;;;7284844;19;20188;-81
2023/06/29 09:40:47;;;;;;;49.83;29.90;;;25.80;99.90;;;;;;7284922;19;20268;-82
2023/06/29 09:43:19;;;;;;;48.92;28.95;;;25.90;99.90;;;;;;7280239;19;20240;-81
2023/06/29 09:45:45;;;;;;;50.80;29.98;;;26.00;99.90;;;;;;7283590;19;20189;-81
2023/06/29 09:48:12;;;;;;;49.17;28.88;;;25.90;99.90;;;;;;7283729;19;20197;-81
2023/06/29 09:50:41;;;;;;;45.38;27.98;;;25.90;99.90;;;;;;7283222;19;20189;-81
2023/06/29 09:53:09;;;;;;;48.53;29.35;;;26.10;99.90;;;;;;7283043;19;20189;-81
2023/06/29 09:55:38;;;;;;;49.45;29.42;;;26.10;99.90;;;;;;7283294;19;20273;-81
2023/06/29 09:58:06;;;;;;;47.75;29.10;;;25.90;99.90;;;;;;7282018;19;20192;-81
2023/06/29 10:00:33;;;;;;;47.75;28.58;;;26.10;99.90;;;;;;7289767;19;20208;-81
2023/06/29 10:02:59;;;;;;;44.15;27.75;;;26.30;99.90;;;;;;7311261;19;20206;-82
2023/06/29 10:05:25;;;;;;;50.15;29.35;;;26.80;99.90;;;;;;7290172;19;20229;-81
2023/06/29 10:07:54;;;;;;;47.72;29.17;;;27.30;99.90;;;;;;7289991;19;20673;-82
2023/06/29 10:10:23;;;;;;;52.15;27.50;;;28.20;99.90;;;;;;7287867;19;20212;-80
2023/06/29 10:12:53;;;;;;;48.17;28.63;;;28.70;99.90;;;;;;7290791;19;20192;-82
2023/06/29 10:15:22;;;;;;;46.05;28.77;;;29.30;99.90;;;;;;7289803;19;20193;-82
2023/06/29 10:18:06;;;;;;;46.40;28.60;;;29.60;99.90;;;;;;7288666;19;20204;-81
2023/06/29 10:20:35;;;;;;;46.17;27.88;;;29.70;99.90;;;;;;7268297;19;20653;-81
2023/06/29 10:23:04;;;;;;;44.40;28.80;;;29.50;99.90;;;;;;7295773;19;20193;-80
2023/06/29 10:25:34;;;;;;;45.00;29.20;;;29.60;99.90;;;;;;7307109;19;20652;-81
2023/06/29 10:28:01;;;;;;;45.78;27.55;;;29.90;99.90;;;;;;7309525;19;20185;-80
2023/06/29 10:30:26;;;;;;;42.08;28.15;;;29.60;99.90;;;;;;7311218;19;20185;-82
2023/06/29 10:32:53;;;;;;;46.28;28.83;;;29.60;99.90;;;;;;7288227;19;20208;-82
2023/06/29 10:35:22;;;;;;;45.83;29.65;;;29.60;99.90;;;;;;7288697;19;20192;-83
2023/06/29 10:37:49;;;;;;;45.35;28.65;;;30.40;99.90;;;;;;7289087;19;20197;-82
2023/06/29 10:40:21;;;;;;;41.00;28.40;;;30.50;99.90;;;;;;7288471;19;20652;-82
2023/06/29 10:42:48;;;;;;;44.78;28.77;;;30.30;99.90;;;;;;7289622;19;20193;-82
2023/06/29 10:45:16;;;;;;;47.40;29.35;;;30.20;99.90;;;;;;7287825;19;20185;-82
2023/06/29 10:47:43;;;;;;;43.97;28.75;;;30.20;99.90;;;;;;7289248;19;20189;-82
2023/06/29 10:50:11;;;;;;;44.70;29.88;;;29.80;99.90;;;;;;7288435;19;20195;-82
2023/06/29 10:52:42;;;;;;;46.05;29.40;;;29.50;99.90;;;;;;7289867;19;20187;-82
2023/06/29 10:55:15;;;;;;;44.63;29.73;;;29.20;99.90;;;;;;7289506;19;20694;-82
2023/06/29 10:58:06;;;;;;;46.35;29.67;;;29.00;99.90;;;;;;7288154;19;20208;-82
2023/06/29 11:00:34;;;;;;;46.30;29.13;;;29.10;99.90;;;;;;7268251;19;20206;-81
2023/06/29 11:03:00;;;;;;;45.25;29.45;;;29.10;99.90;;;;;;7302926;19;20192;-81
2023/06/29 11:05:28;;;;;;;45.25;29.02;;;29.00;99.90;;;;;;7307188;19;20237;-81
2023/06/29 11:07:53;;;;;;;45.72;29.17;;;29.00;99.90;;;;;;7286818;19;20541;-83
2023/06/29 11:10:20;;;;;;;45.17;29.45;;;29.00;99.90;;;;;;7287817;19;20198;-82
2023/06/29 11:12:47;;;;;;;47.17;28.85;;;29.20;99.90;;;;;;7288191;19;20300;-81
2023/06/29 11:15:15;;;;;;;48.53;29.83;;;29.00;99.90;;;;;;7287724;19;20659;-81
2023/06/29 11:17:42;;;;;;;49.80;29.23;;;28.80;99.90;;;;;;7288381;19;20188;-81
2023/06/29 11:20:15;;;;;;;46.92;29.67;;;29.20;99.90;;;;;;7287908;19;20192;-81
2023/06/29 11:22:42;;;;;;;47.45;29.88;;;29.60;99.90;;;;;;7287773;19;20226;-81
2023/06/29 11:25:14;;;;;;;47.05;29.98;;;29.30;99.90;;;;;;7286939;19;20747;-80
2023/06/29 11:27:43;;;;;;;47.30;29.42;;;28.80;99.90;;;;;;7288323;19;20296;-82
2023/06/29 11:30:10;;;;;;;42.63;28.75;;;29.10;99.90;;;;;;7286865;19;20200;-80
2023/06/29 11:32:40;;;;;;;42.22;28.35;;;29.60;99.90;;;;;;7288249;19;20195;-82
2023/06/29 11:35:10;;;;;;;46.40;29.55;;;30.00;99.90;;;;;;7287325;19;20181;-81
2023/06/29 11:37:37;;;;;;;46.42;30.70;;;30.50;99.90;;;;;;7286906;19;20184;-80
2023/06/29 11:40:09;;;;;;;43.67;30.17;;;29.90;99.90;;;;;;7286186;19;20212;-81
2023/06/29 11:42:36;;;;;;;46.05;28.90;;;30.00;99.90;;;;;;7285282;19;20191;-81
2023/06/29 11:45:06;;;;;;;46.65;29.77;;;30.50;99.90;;;;;;7286144;19;20248;-80
2023/06/29 11:47:32;;;;;;;46.47;29.83;;;30.50;99.90;;;;;;7285449;19;20216;-82
2023/06/29 11:50:03;;;;;;;44.85;30.15;;;30.60;99.90;;;;;;7308695;19;20208;-82
2023/06/29 11:52:32;;;;;;;45.25;29.98;;;30.90;99.90;;;;;;7286968;19;20236;-81
2023/06/29 11:55:00;;;;;;;48.88;31.00;;;30.60;99.90;;;;;;7286656;19;20184;-81
2023/06/29 11:57:26;;;;;;;43.25;29.20;;;30.90;99.90;;;;;;7287501;19;20229;-82
2023/06/29 11:59:52;;;;;;;46.33;31.20;;;31.30;99.90;;;;;;7286306;19;20188;-81
2023/06/29 12:02:19;;;;;;;48.38;30.70;;;30.40;99.90;;;;;;7286355;19;20546;-81
2023/06/29 12:04:59;;;;;;;44.78;30.02;;;30.50;99.90;;;;;;7285922;19;20189;-81
2023/06/29 12:07:42;;;;;;;46.13;30.85;;;30.70;99.90;;;;;;7287095;19;20189;-82
2023/06/29 12:10:12;;;;;;;50.60;31.65;;;30.80;99.90;;;;;;7184884;19;2004533;-82
2023/06/29 12:12:45;;;;;;;46.47;30.98;;;30.90;99.90;;;;;;7286184;19;20192;-82
2023/06/29 12:15:18;;;;;;;47.70;30.30;;;31.20;99.90;;;;;;7283908;19;20589;-81
2023/06/29 12:17:45;;;;;;;49.53;30.95;;;31.70;99.90;;;;;;7286173;19;20193;-82
2023/06/29 12:20:21;;;;;;;44.03;30.35;;;31.70;99.90;;;;;;7286068;19;20210;-82
2023/06/29 12:22:50;;;;;;;48.05;30.55;;;31.70;99.90;;;;;;7282880;19;20196;-82
2023/06/29 12:25:18;;;;;;;44.03;30.17;;;31.70;99.90;;;;;;7285505;19;20225;-82